Time;durP1;ratioP1;P1;durP2;ratioP2;P2;SDS_P1;SDS_P2;PMS_P1;PMS_P2;Temp;Humidity;BMP_temperature;BMP_pressure;BME280_temperature;BME280_humidity;BME280_pressure;Samples;Min_cycle;Max_cycle;Signal;HPM_P1;HPM_P2
2021/11/12 00:14:50;;;;;;;242.68;127.75;;;128.20;2252.80;;;;;;5074135;28;20351;-84
2021/11/12 00:17:18;;;;;;;144.35;77.38;;;103.20;2227.20;;;;;;5072846;28;20112;-85
2021/11/12 00:19:44;;;;;;;125.82;73.43;;;103.10;2227.20;;;;;;5072451;28;20032;-85
2021/11/12 00:22:11;;;;;;;139.05;73.93;;;103.20;2227.20;;;;;;5072759;28;20127;-85
2021/11/12 00:24:37;;;;;;;143.45;77.10;;;103.30;2227.20;;;;;;5072755;28;20027;-85
2021/11/12 00:27:05;;;;;;;162.63;89.28;;;128.00;2252.80;;;;;;5072367;28;20024;-85
2021/11/12 00:29:41;;;;;;;169.90;93.55;;;128.10;2252.80;;;;;;5072660;28;20024;-84
2021/11/12 00:32:20;;;;;;;219.18;112.63;;;128.10;2252.80;;;;;;5072318;28;20085;-84
2021/11/12 00:37:26;;;;;;;146.30;81.32;;;128.10;2252.80;;;;;;5073803;28;20020;-83
2021/11/12 00:42:37;;;;;;;95.05;55.90;;;128.00;2252.80;;;;;;5073635;28;20186;-83
2021/11/12 00:45:04;;;;;;;100.07;60.35;;;128.30;2252.80;;;;;;5073966;28;20065;-85
2021/11/12 00:55:30;;;;;;;149.05;86.05;;;128.80;2252.80;;;;;;5001472;28;20038;-84
2021/11/12 00:57:58;;;;;;;89.32;54.33;;;128.00;2252.80;;;;;;5055553;28;20682;-85
2021/11/12 01:00:26;;;;;;;84.45;52.70;;;128.30;2252.80;;;;;;5055180;28;20029;-85
2021/11/12 01:02:52;;;;;;;93.30;60.92;;;103.10;2227.20;;;;;;5055635;28;20035;-83
2021/11/12 01:05:18;;;;;;;97.85;61.08;;;103.00;2227.20;;;;;;5055610;28;20029;-85
2021/11/12 01:07:45;;;;;;;78.68;50.15;;;103.10;2227.20;;;;;;5055249;28;20115;-85
2021/11/12 01:10:13;;;;;;;83.80;51.33;;;103.00;2227.20;;;;;;5055339;28;20036;-85
2021/11/12 01:12:40;;;;;;;105.18;68.22;;;102.90;2227.20;;;;;;5073297;28;20458;-84
2021/11/12 01:15:09;;;;;;;115.30;71.95;;;103.10;2227.20;;;;;;5055371;28;20036;-85
2021/11/12 01:17:34;;;;;;;112.05;69.25;;;103.10;2227.20;;;;;;5055966;28;20093;-85
2021/11/12 01:20:03;;;;;;;112.88;66.72;;;103.10;2227.20;;;;;;5076988;28;20458;-83
2021/11/12 01:22:29;;;;;;;107.88;70.47;;;103.20;2227.20;;;;;;5058661;28;20074;-86
2021/11/12 01:24:55;;;;;;;116.40;69.72;;;128.30;2252.80;;;;;;5058941;28;20024;-85
2021/11/12 01:27:21;;;;;;;81.20;49.05;;;103.20;2227.20;;;;;;5058990;28;20031;-86
2021/11/12 01:29:47;;;;;;;85.78;49.20;;;103.10;2227.20;;;;;;5058747;28;20021;-85
2021/11/12 01:32:19;;;;;;;82.97;49.17;;;103.30;2227.20;;;;;;5076487;28;20351;-85
2021/11/12 01:34:47;;;;;;;86.03;50.45;;;103.30;2227.20;;;;;;5058692;28;20081;-85
2021/11/12 01:37:15;;;;;;;82.97;49.20;;;103.10;2227.20;;;;;;5058384;28;20124;-84
2021/11/12 01:39:41;;;;;;;84.20;47.42;;;103.10;2227.20;;;;;;5070510;28;20080;-83
2021/11/12 01:42:07;;;;;;;81.75;46.70;;;103.10;2227.20;;;;;;5076083;28;20056;-82
2021/11/12 01:44:40;;;;;;;90.68;55.38;;;103.20;2227.20;;;;;;5076133;28;20082;-84
2021/11/12 01:49:43;;;;;;;72.43;39.17;;;103.20;2227.20;;;;;;5076196;28;20071;-85
2021/11/12 01:52:16;;;;;;;68.07;40.28;;;103.10;2227.20;;;;;;5075046;28;20032;-84
2021/11/12 01:59:57;;;;;;;63.78;36.72;;;103.00;2227.20;;;;;;5076297;28;20531;-85
2021/11/12 02:02:25;;;;;;;66.00;39.80;;;102.90;2227.20;;;;;;5074929;28;20029;-85
2021/11/12 02:04:51;;;;;;;65.40;40.50;;;102.70;2227.20;;;;;;5074604;28;20028;-85
2021/11/12 02:07:18;;;;;;;66.45;40.67;;;102.80;2227.20;;;;;;5074853;28;20020;-85
2021/11/12 02:09:44;;;;;;;61.22;39.58;;;102.60;2227.20;;;;;;5074951;28;20028;-83
2021/11/12 02:12:30;;;;;;;69.28;35.80;;;102.70;2227.20;;;;;;5074738;28;20029;-81
2021/11/12 02:14:58;;;;;;;65.05;40.65;;;102.80;2227.20;;;;;;5074819;28;20060;-83
2021/11/12 02:17:28;;;;;;;65.68;36.33;;;102.80;2227.20;;;;;;5074578;28;20028;-84
2021/11/12 02:20:08;;;;;;;61.45;35.72;;;102.60;2227.20;;;;;;5074783;28;20033;-85
2021/11/12 02:22:36;;;;;;;83.95;50.42;;;102.80;2227.20;;;;;;5074952;28;20282;-84
2021/11/12 02:25:13;;;;;;;88.35;51.63;;;102.90;2227.20;;;;;;5075806;28;20027;-84
2021/11/12 02:27:58;;;;;;;66.55;37.90;;;102.60;2227.20;;;;;;5074520;28;20025;-83
2021/11/12 02:30:27;;;;;;;57.53;37.33;;;102.50;2227.20;;;;;;5075119;28;20032;-83
2021/11/12 02:33:11;;;;;;;55.90;33.78;;;102.50;2227.20;;;;;;5073874;28;20029;-83
2021/11/12 02:35:41;;;;;;;53.53;31.80;;;102.70;2227.20;;;;;;5074463;28;20060;-85
2021/11/12 02:38:07;;;;;;;52.30;33.53;;;102.50;2227.20;;;;;;5073745;28;20025;-83
2021/11/12 02:40:35;;;;;;;48.95;30.63;;;102.50;2227.20;;;;;;5057552;28;20033;-84
2021/11/12 02:43:02;;;;;;;71.00;39.85;;;102.50;2227.20;;;;;;5057679;28;20032;-83
2021/11/12 02:45:29;;;;;;;61.38;37.25;;;102.50;2227.20;;;;;;5057189;28;20025;-84
2021/11/12 02:47:56;;;;;;;53.05;32.65;;;102.40;2227.20;;;;;;5057524;28;20021;-84
2021/11/12 02:50:22;;;;;;;57.83;36.72;;;77.60;2227.20;;;;;;5056985;28;20033;-84
2021/11/12 02:52:56;;;;;;;77.82;46.15;;;77.70;2227.20;;;;;;5056967;28;20118;-82
2021/11/12 02:55:22;;;;;;;100.55;58.95;;;77.70;2227.20;;;;;;5057395;28;20025;-82
2021/11/12 02:57:48;;;;;;;93.93;56.08;;;102.40;2227.20;;;;;;5057303;28;20031;-83
2021/11/12 03:00:15;;;;;;;96.40;58.05;;;102.60;2227.20;;;;;;5074415;28;20409;-84
2021/11/12 03:02:41;;;;;;;100.07;61.08;;;102.60;2227.20;;;;;;5057027;28;20089;-82
2021/11/12 03:05:08;;;;;;;101.20;59.83;;;102.50;2227.20;;;;;;5057068;28;20024;-81
2021/11/12 03:07:33;;;;;;;82.68;48.83;;;102.50;2227.20;;;;;;5056866;28;20055;-84
2021/11/12 03:09:59;;;;;;;76.28;45.63;;;102.40;2227.20;;;;;;5056926;28;20055;-83
2021/11/12 03:12:25;;;;;;;97.20;58.65;;;102.60;2227.20;;;;;;5056979;28;20025;-82
2021/11/12 03:14:52;;;;;;;99.03;61.75;;;102.70;2227.20;;;;;;5056377;28;20033;-82
2021/11/12 03:17:18;;;;;;;98.82;61.88;;;102.70;2227.20;;;;;;5056822;28;20063;-82
2021/11/12 03:19:44;;;;;;;82.38;48.60;;;102.70;2227.20;;;;;;5074895;28;20024;-84
2021/11/12 03:22:15;;;;;;;74.07;41.70;;;102.70;2227.20;;;;;;5056540;28;20035;-83
2021/11/12 03:24:47;;;;;;;92.68;50.28;;;102.80;2227.20;;;;;;5057060;28;20055;-81
2021/11/12 03:30:14;;;;;;;61.67;36.28;;;77.60;2227.20;;;;;;5074605;28;20489;-80
2021/11/12 04:40:12;;;;;;;80.18;43.05;;;77.10;2227.20;;;;;;5073973;28;20064;-81
2021/11/12 05:55:16;;;;;;;64.25;39.75;;;76.90;2227.20;;;;;;5076209;28;20124;-83
2021/11/12 05:57:42;;;;;;;60.22;38.10;;;77.00;2227.20;;;;;;5058559;28;20119;-82
2021/11/12 06:00:16;;;;;;;68.55;42.13;;;77.00;2227.20;;;;;;5058295;28;20457;-84
2021/11/12 06:02:42;;;;;;;72.05;40.92;;;52.10;2227.20;;;;;;5057824;28;20063;-83
2021/11/12 06:05:09;;;;;;;73.95;38.00;;;52.00;2227.20;;;;;;5074935;28;20397;-84
2021/11/12 06:07:35;;;;;;;112.55;68.90;;;51.90;2227.20;;;;;;5058059;28;20034;-85
2021/11/12 06:10:01;;;;;;;104.60;65.90;;;52.00;2227.20;;;;;;5057782;28;20056;-83
2021/11/12 06:12:27;;;;;;;75.90;48.65;;;51.80;2227.20;;;;;;5058037;28;20078;-82
2021/11/12 06:14:54;;;;;;;68.05;43.90;;;76.90;2227.20;;;;;;5058178;28;20033;-82
2021/11/12 06:17:20;;;;;;;69.55;42.65;;;76.90;2227.20;;;;;;5057813;28;20028;-81
2021/11/12 06:19:45;;;;;;;85.93;58.97;;;77.00;2227.20;;;;;;5057890;28;20530;-82
2021/11/12 06:22:12;;;;;;;86.55;56.22;;;77.20;2227.20;;;;;;5057351;28;20025;-86
2021/11/12 06:24:38;;;;;;;75.45;48.10;;;76.90;2227.20;;;;;;5057831;28;20028;-84
2021/11/12 06:27:06;;;;;;;68.65;42.88;;;77.40;2227.20;;;;;;5057907;28;20539;-85
2021/11/12 06:29:33;;;;;;;56.33;35.72;;;77.50;2227.20;;;;;;5057581;28;20504;-81
2021/11/12 06:31:59;;;;;;;73.20;47.47;;;77.60;2227.20;;;;;;5057703;28;20355;-86
2021/11/12 06:34:24;;;;;;;75.88;52.17;;;77.60;2227.20;;;;;;5058182;28;20085;-84
2021/11/12 06:36:51;;;;;;;84.38;51.88;;;77.60;2227.20;;;;;;5057309;28;20027;-82
2021/11/12 06:39:19;;;;;;;74.53;41.95;;;77.70;2227.20;;;;;;5075501;28;20556;-82
2021/11/12 06:49:38;;;;;;;61.03;39.08;;;77.70;2227.20;;;;;;5075458;28;20439;-83
2021/11/12 06:52:04;;;;;;;54.38;37.50;;;77.70;2227.20;;;;;;5057041;28;20393;-84
2021/11/12 06:54:30;;;;;;;64.07;40.00;;;77.70;2227.20;;;;;;5057182;28;20106;-83
2021/11/12 06:56:56;;;;;;;67.35;45.85;;;77.70;2227.20;;;;;;5056852;28;20034;-83
2021/11/12 06:59:22;;;;;;;64.03;43.97;;;102.50;2227.20;;;;;;5057308;28;20111;-87
2021/11/12 07:01:48;;;;;;;58.53;40.25;;;102.50;2227.20;;;;;;5074989;28;20083;-84
2021/11/12 07:04:15;;;;;;;66.03;40.88;;;102.50;2227.20;;;;;;5056832;28;20477;-82
2021/11/12 07:06:42;;;;;;;58.67;40.17;;;102.60;2227.20;;;;;;5057063;28;20112;-84
2021/11/12 07:09:09;;;;;;;61.53;39.95;;;102.50;2227.20;;;;;;5057197;28;20024;-85
2021/11/12 07:11:35;;;;;;;56.30;37.35;;;102.60;2227.20;;;;;;5056674;28;20436;-85
2021/11/12 07:14:04;;;;;;;62.55;36.78;;;102.70;2227.20;;;;;;5057194;28;20036;-83
2021/11/12 07:16:31;;;;;;;60.10;33.83;;;102.70;2227.20;;;;;;5056648;28;20039;-82
2021/11/12 07:18:57;;;;;;;48.55;32.00;;;102.70;2227.20;;;;;;5056493;28;20385;-85
2021/11/12 07:21:26;;;;;;;58.40;37.35;;;102.70;2227.20;;;;;;5056914;28;20025;-86
2021/11/12 07:23:54;;;;;;;74.85;46.92;;;102.80;2227.20;;;;;;5074424;28;20389;-83
2021/11/12 07:26:20;;;;;;;61.65;37.60;;;102.70;2227.20;;;;;;5056528;28;20477;-85
2021/11/12 07:28:48;;;;;;;56.45;39.90;;;102.60;2227.20;;;;;;5056552;28;20028;-86
2021/11/12 07:31:16;;;;;;;55.30;36.35;;;102.80;2227.20;;;;;;5056603;28;20035;-83
2021/11/12 07:33:43;;;;;;;66.15;43.45;;;102.80;2227.20;;;;;;5056113;28;20036;-84
2021/11/12 07:49:09;;;;;;;58.33;39.03;;;103.30;2227.20;;;;;;5074336;28;20182;-85
2021/11/12 07:51:36;;;;;;;89.75;45.72;;;103.30;2227.20;;;;;;5056413;28;20063;-84
2021/11/12 07:54:02;;;;;;;73.60;44.08;;;128.00;2252.80;;;;;;5055991;28;20028;-82
2021/11/12 07:56:28;;;;;;;75.50;46.85;;;128.10;2252.80;;;;;;5074124;28;20146;-83
2021/11/12 07:58:54;;;;;;;58.17;34.33;;;128.30;2252.80;;;;;;5056079;28;20119;-84
2021/11/12 08:01:20;;;;;;;45.83;31.58;;;128.40;2252.80;;;;;;5055968;28;20397;-81
2021/11/12 08:03:50;;;;;;;45.60;28.85;;;128.50;2252.80;;;;;;5056085;28;20032;-84
2021/11/12 08:06:17;;;;;;;45.65;30.15;;;128.50;2252.80;;;;;;5056124;28;20112;-84
2021/11/12 08:08:51;;;;;;;53.70;35.42;;;128.60;2252.80;;;;;;5055944;28;20454;-83
2021/11/12 08:11:20;;;;;;;46.58;34.10;;;128.70;2252.80;;;;;;5056372;28;20382;-82
2021/11/12 08:13:57;;;;;;;54.78;34.72;;;128.70;2252.80;;;;;;5073962;28;20033;-84
2021/11/12 08:19:11;;;;;;;59.22;36.75;;;128.90;2252.80;;;;;;5073898;28;20071;-83
2021/11/12 08:27:16;;;;;;;58.90;36.30;;;153.80;2252.80;;;;;;5074113;28;20047;-84
2021/11/12 08:32:42;;;;;;;57.45;35.28;;;154.10;2252.80;;;;;;5077482;28;20035;-81
2021/11/12 08:35:29;;;;;;;57.78;32.72;;;154.10;2252.80;;;;;;5059813;28;20055;-84
2021/11/12 08:43:08;;;;;;;58.72;33.20;;;154.50;2252.80;;;;;;5077147;28;20035;-82
2021/11/12 08:45:40;;;;;;;61.55;41.50;;;179.20;2252.80;;;;;;5059516;28;20085;-84
2021/11/12 08:48:12;;;;;;;49.45;32.70;;;179.40;2252.80;;;;;;5059601;28;20025;-84
2021/11/12 08:50:38;;;;;;;70.90;42.95;;;179.60;2252.80;;;;;;5059082;28;20067;-80
2021/11/12 08:53:08;;;;;;;59.58;38.22;;;179.70;2252.80;;;;;;5077091;28;20040;-83
2021/11/12 08:55:36;;;;;;;62.65;38.95;;;179.80;2252.80;;;;;;5059135;28;20052;-79
2021/11/12 08:58:04;;;;;;;55.35;33.28;;;180.00;2252.80;;;;;;5058866;28;20444;-82
2021/11/12 09:00:31;;;;;;;44.28;28.92;;;180.10;2252.80;;;;;;5076686;28;20351;-80
2021/11/12 09:02:58;;;;;;;39.80;24.50;;;204.80;2252.80;;;;;;5058670;28;20033;-82
2021/11/12 09:05:26;;;;;;;48.17;30.27;;;204.90;2252.80;;;;;;5058911;28;20109;-81
2021/11/12 09:07:52;;;;;;;38.95;25.35;;;205.10;2252.80;;;;;;5058994;28;20029;-80
2021/11/12 09:10:21;;;;;;;48.95;32.17;;;205.20;2252.80;;;;;;5076625;28;20028;-79
2021/11/12 09:12:51;;;;;;;46.80;29.45;;;205.40;2252.80;;;;;;5060602;28;20123;-80
2021/11/12 09:15:31;;;;;;;39.65;26.10;;;205.60;2252.80;;;;;;5075349;28;20021;-80
2021/11/12 09:17:59;;;;;;;36.50;25.65;;;205.70;2252.80;;;;;;5057229;28;20448;-80
2021/11/12 09:20:26;;;;;;;34.20;23.70;;;230.50;2252.80;;;;;;5057428;28;20035;-79
2021/11/12 09:22:55;;;;;;;37.72;27.00;;;230.50;2252.80;;;;;;5076007;28;20088;-81
2021/11/12 09:25:22;;;;;;;50.28;31.58;;;230.60;2252.80;;;;;;5057263;28;20024;-81
2021/11/12 09:27:48;;;;;;;44.08;30.02;;;230.70;2252.80;;;;;;5075259;28;20070;-80
2021/11/12 09:30:24;;;;;;;40.97;31.30;;;230.90;2252.80;;;;;;5057802;28;20106;-80
2021/11/12 09:32:55;;;;;;;43.42;28.88;;;231.00;2252.80;;;;;;5057170;28;20032;-81
2021/11/12 09:35:24;;;;;;;43.45;28.77;;;231.20;2252.80;;;;;;5057332;28;20545;-81
2021/11/12 09:37:50;;;;;;;43.03;30.25;;;231.20;2252.80;;;;;;5057595;28;20028;-81
2021/11/12 09:40:17;;;;;;;34.95;26.23;;;256.00;2252.80;;;;;;5036819;28;20041;-81
2021/11/12 09:42:44;;;;;;;33.97;23.60;;;256.20;2252.80;;;;;;5054882;28;20095;-79
2021/11/12 09:45:12;;;;;;;33.90;23.65;;;256.20;2252.80;;;;;;5033447;28;20053;-79
2021/11/12 09:47:39;;;;;;;41.38;24.67;;;256.40;2252.80;;;;;;5033628;28;20087;-78
2021/11/12 09:50:09;;;;;;;37.40;25.85;;;256.40;2252.80;;;;;;5034806;28;20095;-78
2021/11/12 09:52:36;;;;;;;33.72;23.30;;;256.50;2252.80;;;;;;5034019;28;20445;-79
2021/11/12 09:55:04;;;;;;;35.92;24.33;;;256.70;2252.80;;;;;;5035763;28;20033;-80
2021/11/12 09:57:31;;;;;;;35.35;24.98;;;256.70;2252.80;;;;;;5034857;28;20084;-79
2021/11/12 10:00:00;;;;;;;46.20;30.65;;;256.90;2252.80;;;;;;5035722;28;20025;-80
2021/11/12 10:02:29;;;;;;;50.20;34.60;;;281.60;2278.40;;;;;;5036217;28;20033;-79
2021/11/12 10:04:56;;;;;;;48.50;30.75;;;281.70;2278.40;;;;;;5036320;28;20030;-80
2021/11/12 10:07:22;;;;;;;43.75;32.78;;;281.70;2278.40;;;;;;5034311;28;20461;-79
2021/11/12 10:10:13;;;;;;;26.27;19.80;;;282.00;2278.40;;;;;;5030640;28;20022;-79
2021/11/12 10:12:46;;;;;;;29.15;18.60;;;282.00;2278.40;;;;;;5033082;28;20029;-79
2021/11/12 10:15:23;;;;;;;27.63;17.38;;;282.10;2278.40;;;;;;5032756;28;20044;-79
2021/11/12 10:17:50;;;;;;;25.27;19.50;;;282.20;2278.40;;;;;;5033422;28;20639;-79
2021/11/12 10:20:19;;;;;;;29.55;19.75;;;282.30;2278.40;;;;;;5032798;28;20053;-79
2021/11/12 10:22:46;;;;;;;31.60;21.05;;;282.40;2278.40;;;;;;5034578;28;20044;-79
2021/11/12 10:25:14;;;;;;;27.17;18.10;;;282.50;2278.40;;;;;;5036579;28;20032;-79
2021/11/12 10:27:46;;;;;;;26.80;19.17;;;282.40;2278.40;;;;;;5036275;28;20363;-79
2021/11/12 10:30:18;;;;;;;34.85;20.63;;;282.50;2278.40;;;;;;5053828;28;20053;-79
2021/11/12 10:32:44;;;;;;;30.30;20.33;;;307.30;2304.00;;;;;;5036477;28;20116;-79
2021/11/12 10:35:25;;;;;;;32.42;22.13;;;307.20;2304.00;;;;;;5053974;28;20500;-79
2021/11/12 10:37:52;;;;;;;34.35;28.75;;;307.30;2304.00;;;;;;5035932;28;20127;-79
2021/11/12 10:40:21;;;;;;;32.95;22.75;;;307.50;2304.00;;;;;;5074453;28;20040;-78
2021/11/12 10:42:54;;;;;;;47.92;35.03;;;307.80;2304.00;;;;;;5073896;28;20029;-78
2021/11/12 10:45:24;;;;;;;;;;;307.80;2304.00;;;;;;5073911;28;20542;-78
2021/11/12 10:47:53;;;;;;;27.77;19.23;;;307.80;2304.00;;;;;;5059716;28;19904;-78
2021/11/12 10:50:22;;;;;;;25.75;17.67;;;307.70;2304.00;;;;;;5093704;28;20034;-78
2021/11/12 10:52:50;;;;;;;24.95;16.77;;;307.80;2304.00;;;;;;5063774;28;20028;-78
2021/11/12 10:55:25;;;;;;;26.02;18.77;;;307.80;2304.00;;;;;;5055702;28;20039;-78
2021/11/12 10:58:00;;;;;;;23.85;19.65;;;308.00;2304.00;;;;;;5055581;28;20423;-78
2021/11/12 11:00:30;;;;;;;25.35;16.98;;;332.80;2329.60;;;;;;5055810;28;20052;-79
2021/11/12 11:03:03;;;;;;;25.75;19.73;;;332.90;2329.60;;;;;;5055498;28;20474;-78
2021/11/12 11:05:34;;;;;;;34.05;25.40;;;333.10;2329.60;;;;;;5071461;28;20469;-79
2021/11/12 11:08:05;;;;;;;25.60;18.20;;;333.40;2329.60;;;;;;5094070;28;20031;-80
2021/11/12 11:10:34;;;;;;;28.65;21.85;;;333.60;2304.00;;;;;;5075423;28;20059;-78
2021/11/12 11:13:22;;;;;;;26.35;19.35;;;333.70;2304.00;;;;;;5073553;28;20024;-78
2021/11/12 11:15:53;;;;;;;31.63;23.70;;;333.70;2304.00;;;;;;5055717;28;20032;-79
2021/11/12 11:18:24;;;;;;;22.75;16.33;;;358.60;2304.00;;;;;;5074265;28;20465;-78
2021/11/12 11:20:52;;;;;;;44.40;35.55;;;358.70;2252.80;;;;;;5074265;28;20099;-78
2021/11/12 11:23:20;;;;;;;29.58;20.05;;;358.80;2252.80;;;;;;5073940;28;20478;-80
2021/11/12 11:26:03;;;;;;;43.47;20.90;;;358.80;2227.20;;;;;;5074096;28;20043;-77
2021/11/12 11:28:31;;;;;;;32.03;23.25;;;358.80;2252.80;;;;;;5056452;28;20564;-78
2021/11/12 11:30:57;;;;;;;29.48;21.35;;;358.80;2278.40;;;;;;5055663;28;20025;-78
2021/11/12 11:33:24;;;;;;;34.72;26.85;;;359.00;2252.80;;;;;;5056040;28;20028;-77
2021/11/12 11:35:55;;;;;;;28.70;22.02;;;359.00;2201.60;;;;;;5056122;28;20465;-78
2021/11/12 11:38:25;;;;;;;31.38;20.85;;;359.00;2201.60;;;;;;5073479;28;20079;-78
2021/11/12 11:40:52;;;;;;;24.77;18.30;;;359.00;2201.60;;;;;;5056270;28;20025;-79
2021/11/12 11:43:18;;;;;;;27.08;18.35;;;359.10;2176.00;;;;;;5073980;28;20036;-77
2021/11/12 11:45:46;;;;;;;24.27;18.65;;;359.00;2150.40;;;;;;5055825;28;20032;-78
2021/11/12 11:48:14;;;;;;;27.95;19.63;;;359.10;2176.00;;;;;;5056085;28;20137;-78
2021/11/12 11:50:56;;;;;;;27.83;19.17;;;359.20;2201.60;;;;;;5074194;28;20021;-79
2021/11/12 11:53:24;;;;;;;25.70;19.23;;;359.30;2201.60;;;;;;5056044;28;20032;-77
2021/11/12 11:55:52;;;;;;;29.75;22.50;;;384.20;2124.80;;;;;;5074258;28;20039;-78
2021/11/12 11:58:51;;;;;;;33.38;22.58;;;384.40;2124.80;;;;;;5073524;28;20116;-78
2021/11/12 12:01:23;;;;;;;25.63;19.92;;;384.70;2073.60;;;;;;5055738;28;20060;-77
2021/11/12 12:04:15;;;;;;;24.23;16.85;;;384.80;2022.40;;;;;;5073043;28;20024;-78
2021/11/12 12:07:04;;;;;;;27.88;22.13;;;384.60;2022.40;;;;;;5073210;28;20024;-78
2021/11/12 12:09:47;;;;;;;27.98;22.08;;;384.60;2022.40;;;;;;5055599;28;20025;-78
2021/11/12 12:12:30;;;;;;;27.85;18.27;;;384.70;2048.00;;;;;;5055395;28;20634;-78
2021/11/12 12:15:17;;;;;;;;;;;384.90;2022.40;;;;;;5055972;28;20028;-78
2021/11/12 12:18:05;;;;;;;27.77;20.27;;;384.60;1996.80;;;;;;5038351;28;19904;-78
2021/11/12 13:25:25;;;;;;;24.08;15.77;;;409.70;1868.80;;;;;;5076456;28;20127;-79
2021/11/12 13:28:09;;;;;;;32.05;20.30;;;409.60;1868.80;;;;;;5058600;28;20035;-79
2021/11/12 13:30:35;;;;;;;30.02;21.17;;;409.60;1843.20;;;;;;5058316;28;20040;-79
2021/11/12 13:33:02;;;;;;;31.08;20.73;;;409.70;1843.20;;;;;;5058408;28;20024;-79
2021/11/12 13:35:30;;;;;;;31.35;22.73;;;409.80;1894.40;;;;;;5076222;28;20035;-81
2021/11/12 13:37:56;;;;;;;37.80;25.15;;;409.80;1894.40;;;;;;5057704;28;20025;-83
2021/11/12 13:40:22;;;;;;;35.90;25.05;;;409.70;1894.40;;;;;;5058167;28;20031;-79
2021/11/12 13:42:49;;;;;;;54.08;34.00;;;409.70;1894.40;;;;;;5076367;28;20032;-79
2021/11/12 13:45:24;;;;;;;44.72;27.25;;;409.60;1920.00;;;;;;5057936;28;20024;-78
2021/11/12 13:48:11;;;;;;;36.08;22.17;;;384.90;1894.40;;;;;;5058223;28;20463;-78
2021/11/12 13:50:39;;;;;;;149.05;103.07;;;384.90;1894.40;;;;;;5057835;28;20473;-78
2021/11/12 13:53:05;;;;;;;155.20;103.97;;;384.70;1894.40;;;;;;5057828;28;20028;-78
2021/11/12 13:55:35;;;;;;;150.38;105.05;;;384.70;1894.40;;;;;;5058090;28;20035;-77
2021/11/12 13:58:04;;;;;;;71.80;52.50;;;384.70;1894.40;;;;;;5057639;28;20025;-77
2021/11/12 14:00:31;;;;;;;63.33;46.63;;;384.80;1920.00;;;;;;5075892;28;20535;-79
2021/11/12 14:03:10;;;;;;;58.30;38.70;;;384.70;1920.00;;;;;;5075884;28;20025;-78
2021/11/12 14:05:56;;;;;;;51.72;39.78;;;384.70;1920.00;;;;;;5057714;28;20025;-78
2021/11/12 14:08:22;;;;;;;52.53;41.33;;;384.60;1971.20;;;;;;5057812;28;20067;-78
2021/11/12 14:10:51;;;;;;;62.33;42.58;;;384.50;1971.20;;;;;;5057722;28;20543;-77
2021/11/12 14:13:19;;;;;;;54.45;39.00;;;384.00;1971.20;;;;;;5057464;28;20119;-78
2021/11/12 14:16:01;;;;;;;56.53;38.17;;;384.30;1996.80;;;;;;5075581;28;20036;-79
2021/11/12 14:27:01;;;;;;;63.45;42.20;;;359.20;2073.60;;;;;;5074141;28;20067;-80
2021/11/12 14:30:19;;;;;;;66.47;39.78;;;359.10;2124.80;;;;;;5075402;28;20025;-80
2021/11/12 14:35:13;;;;;;;57.88;40.53;;;359.00;2099.20;;;;;;5075466;28;20028;-80
2021/11/12 14:40:44;;;;;;;82.70;55.40;;;358.80;2176.00;;;;;;5074888;28;20105;-80
2021/11/12 14:45:44;;;;;;;108.05;68.80;;;358.70;2227.20;;;;;;5074997;28;20032;-81
2021/11/12 14:48:26;;;;;;;101.28;70.35;;;358.60;2201.60;;;;;;5074728;28;20052;-79
2021/11/12 14:53:39;;;;;;;89.07;63.55;;;333.70;2304.00;;;;;;5075870;28;20039;-79
2021/11/12 14:56:17;;;;;;;100.78;68.85;;;333.50;2329.60;;;;;;5075022;28;20074;-79
2021/11/12 14:58:47;;;;;;;110.22;75.15;;;333.40;2329.60;;;;;;5056767;28;20174;-79
2021/11/12 15:01:16;;;;;;;100.20;73.00;;;333.20;2329.60;;;;;;5056578;28;20025;-78
2021/11/12 15:03:44;;;;;;;94.47;68.15;;;333.20;2329.60;;;;;;5074560;28;20032;-79
2021/11/12 15:06:12;;;;;;;91.32;63.75;;;333.00;2329.60;;;;;;5056664;28;20048;-79
2021/11/12 15:08:46;;;;;;;93.75;67.25;;;333.00;2329.60;;;;;;5056236;28;20024;-79
2021/11/12 15:11:13;;;;;;;149.95;98.25;;;332.80;2329.60;;;;;;5056443;28;20028;-78
2021/11/12 15:13:40;;;;;;;210.48;128.35;;;332.80;2329.60;;;;;;5056284;28;20035;-78
2021/11/12 15:16:26;;;;;;;209.25;126.80;;;308.10;2304.00;;;;;;5056214;28;20119;-78
2021/11/12 15:18:59;;;;;;;179.25;112.72;;;308.10;2304.00;;;;;;5074332;28;20025;-78
2021/11/12 15:27:26;;;;;;;180.77;117.32;;;307.70;2304.00;;;;;;5074198;28;20032;-77
2021/11/12 15:29:43;;;;;;;172.75;114.90;;;307.60;2304.00;;;;;;5073001;28;20036;-79
2021/11/12 15:32:17;;;;;;;178.95;116.10;;;307.50;2304.00;;;;;;5074033;28;20025;-77
2021/11/12 15:34:50;;;;;;;180.70;121.90;;;307.40;2304.00;;;;;;5073916;28;20035;-79
2021/11/12 15:37:43;;;;;;;154.85;102.75;;;307.30;2304.00;;;;;;5073838;28;20021;-78
2021/11/12 15:40:16;;;;;;;169.40;106.72;;;307.30;2304.00;;;;;;5073558;28;20047;-79
2021/11/12 15:42:54;;;;;;;185.65;119.70;;;307.20;2304.00;;;;;;5073838;28;20401;-81
2021/11/12 15:45:26;;;;;;;228.32;151.13;;;282.50;2278.40;;;;;;5056340;28;20047;-80
2021/11/12 15:47:58;;;;;;;219.77;147.88;;;282.40;2278.40;;;;;;5074436;28;20067;-81
2021/11/12 15:50:41;;;;;;;234.05;157.00;;;282.40;2278.40;;;;;;5056146;28;20462;-83
2021/11/12 15:53:31;;;;;;;198.15;134.65;;;282.40;2278.40;;;;;;5056088;28;20035;-80
2021/11/12 15:58:53;;;;;;;156.88;112.50;;;282.20;2278.40;;;;;;5074148;28;20036;-80
2021/11/12 16:09:25;;;;;;;148.75;100.65;;;282.00;2278.40;;;;;;5073892;28;20036;-80
2021/11/12 16:17:24;;;;;;;154.00;106.25;;;281.70;2278.40;;;;;;5073197;28;20385;-81
2021/11/12 16:25:12;;;;;;;131.45;87.50;;;281.60;2278.40;;;;;;5073613;28;20086;-83
2021/11/12 16:27:43;;;;;;;135.80;91.50;;;281.60;2278.40;;;;;;5055672;28;20025;-82
2021/11/12 16:30:11;;;;;;;153.02;98.38;;;281.60;2278.40;;;;;;5055867;28;20024;-83
2021/11/12 16:32:45;;;;;;;126.82;83.78;;;281.60;2278.40;;;;;;5055144;28;20067;-82
2021/11/12 16:35:19;;;;;;;131.57;83.22;;;281.60;2278.40;;;;;;5055718;28;20052;-83
2021/11/12 16:37:48;;;;;;;130.48;82.00;;;256.90;2252.80;;;;;;5055645;28;20029;-81
2021/11/12 16:40:20;;;;;;;125.05;80.93;;;256.90;2252.80;;;;;;5072926;28;20067;-82
2021/11/12 16:43:37;;;;;;;171.73;113.10;;;256.80;2252.80;;;;;;5073657;28;20025;-81
2021/11/12 16:58:45;;;;;;;210.70;147.02;;;256.40;2252.80;;;;;;5077478;28;20031;-84
2021/11/12 17:01:40;;;;;;;216.10;146.27;;;256.30;2252.80;;;;;;5077210;28;20024;-83
2021/11/12 17:06:51;;;;;;;243.45;166.43;;;256.20;2252.80;;;;;;5077422;28;20050;-82
2021/11/12 17:14:48;;;;;;;237.30;155.95;;;256.00;2252.80;;;;;;5076826;28;20042;-82
2021/11/12 17:17:29;;;;;;;220.85;147.48;;;256.00;2252.80;;;;;;5077240;28;20028;-84
2021/11/12 17:20:14;;;;;;;181.50;124.82;;;256.00;2252.80;;;;;;5058540;28;20028;-83
2021/11/12 17:47:17;;;;;;;205.52;138.85;;;230.90;2252.80;;;;;;5076948;28;20107;-85
2021/11/12 18:03:08;;;;;;;257.63;168.68;;;230.60;2252.80;;;;;;5076102;28;20546;-82
2021/11/12 18:05:41;;;;;;;226.27;151.32;;;230.60;2252.80;;;;;;5058043;28;20025;-85
2021/11/12 21:48:37;;;;;;;185.23;115.28;;;154.00;2252.80;;;;;;5076585;28;20428;-84
2021/11/12 21:51:04;;;;;;;191.05;120.38;;;154.10;2252.80;;;;;;5058698;28;20112;-83
2021/11/12 21:53:34;;;;;;;212.57;138.05;;;154.20;2252.80;;;;;;5058475;28;20024;-85
2021/11/12 21:56:01;;;;;;;225.13;137.73;;;154.30;2252.80;;;;;;5058279;28;20032;-84
2021/11/12 21:58:28;;;;;;;212.80;133.27;;;154.40;2252.80;;;;;;5076362;28;20033;-83
2021/11/12 22:00:55;;;;;;;210.93;135.48;;;154.40;2252.80;;;;;;5058179;28;20032;-83
2021/11/12 22:03:23;;;;;;;222.43;139.35;;;154.50;2252.80;;;;;;5058039;28;20024;-83
2021/11/12 22:05:49;;;;;;;212.45;136.80;;;154.50;2252.80;;;;;;5076114;28;20067;-83
2021/11/12 22:08:15;;;;;;;226.23;137.73;;;154.30;2252.80;;;;;;5058153;28;20562;-85
2021/11/12 22:10:42;;;;;;;210.63;136.77;;;154.10;2252.80;;;;;;5058147;28;20030;-83
2021/11/12 22:13:08;;;;;;;253.77;151.07;;;154.10;2252.80;;;;;;5058058;28;20036;-82
2021/11/12 22:15:35;;;;;;;211.30;133.05;;;154.10;2252.80;;;;;;5057984;28;20110;-84
2021/11/12 22:18:02;;;;;;;177.70;109.85;;;154.30;2252.80;;;;;;5057998;28;20078;-83